Terminal Aerodrome Forecast
Issued by NWS Upton, NY

Home | Current Version | Previous Version | Text Only | Print | Product List | Glossary On
Versions: 1 2 3 4 5 6 7 8 9 10 11 12 13 14 15 16 17 18 19 20 21 22 23 24 25 26 27 28 29 30 31 32 33 34
000
FTUS41 KOKX 071556 AAD
TAFISP
TAF AMD
KISP 071556Z 0716/0812 18010KT 6SM HZ BKN007
     FM071630 18010KT 6SM HZ SCT008 BKN015
     FM071800 19012KT 6SM HZ SCT015 BKN040
     FM072000 18012G20KT P6SM BKN050
     FM080100 18010KT P6SM SCT050 BKN250=

USA.gov is the U.S. government's official web portal to all federal, state and local government web resources and services.